Pagina principală
METAR-TAF:

METAR-TAF

Aeroporturi :

Kelso, Washington, Statele Unite ale Americii

Latitudine: 46-07N, longitudine: 122-54W, elevație: 5 m

Observații meteo curente

Raportul a fost făcut în urmă cu 58 de minute, la 19:56 UTC
Vânt 6 kt de la Nord-vest
Temperatură 16°C
Umiditate 48%
Presiune 1017 hPa
Vizibilitate: 16.1 km
Nori puțini la o înălțime de 3300 picior
Nori împrăștiați la o înălțime de 4700 picior
Nori fragmentați la o înălțime de 7000 picior
ploaie slabă

METAR: KKLS 161956Z AUTO 32006KT 10SM -RA FEW033 SCT047 BKN070 16/05 A3004 RMK AO2 RAB48 SLP175 P0000 T01560050

Ora: 13:54 (20:54 UTC)


TAF: lipsă

Observații și prognoze meteo pentru peste 4.000 de aeroporturi (rapoarte METAR și TAF).

Stațiile disponibile sunt reprezentate pe hartă prin puncte galbene și roșii.

Țineți indicatorul mouse-ului pe punctul dorit pentru a vedea denumirea stației.

Apoi, faceți clic pentru a vedea observațiile și prognozele meteorologice.

Pentru a schimba harta: Pentru mărire, faceți clic pe butoanele verzi cu cruce neagră; pentru micșorare, pe butonul verde cu o liniuță; pentru hărți învecinate, pe săgețile verzi.


METAR-TAF: